sensor_id;sensor_type;location;lat;lon;timestamp;temperature;humidity
913;DHT22;443;51.448;7.028;2022-10-16T00:02:11;17.30;80.90
913;DHT22;443;51.448;7.028;2022-10-16T00:04:38;17.40;80.80
913;DHT22;443;51.448;7.028;2022-10-16T00:07:05;17.40;80.90
913;DHT22;443;51.448;7.028;2022-10-16T00:09:31;17.30;80.90
913;DHT22;443;51.448;7.028;2022-10-16T00:11:58;17.30;80.80
913;DHT22;443;51.448;7.028;2022-10-16T00:14:26;17.30;81.00
913;DHT22;443;51.448;7.028;2022-10-16T00:16:53;17.30;80.80
913;DHT22;443;51.448;7.028;2022-10-16T00:19:20;17.30;80.90
913;DHT22;443;51.448;7.028;2022-10-16T00:21:46;17.30;80.80
913;DHT22;443;51.448;7.028;2022-10-16T00:24:13;17.30;81.10
913;DHT22;443;51.448;7.028;2022-10-16T00:26:40;17.30;81.10
913;DHT22;443;51.448;7.028;2022-10-16T00:29:08;17.30;81.90
913;DHT22;443;51.448;7.028;2022-10-16T00:31:36;17.30;81.00
913;DHT22;443;51.448;7.028;2022-10-16T00:34:03;17.20;81.10
913;DHT22;443;51.448;7.028;2022-10-16T00:36:30;17.30;81.30
913;DHT22;443;51.448;7.028;2022-10-16T00:38:58;17.30;81.20
913;DHT22;443;51.448;7.028;2022-10-16T00:41:27;17.30;81.10
913;DHT22;443;51.448;7.028;2022-10-16T00:43:55;17.30;81.10
913;DHT22;443;51.448;7.028;2022-10-16T00:46:24;17.20;81.00
913;DHT22;443;51.448;7.028;2022-10-16T00:48:56;17.20;81.20
913;DHT22;443;51.448;7.028;2022-10-16T00:51:28;17.20;81.30
913;DHT22;443;51.448;7.028;2022-10-16T00:53:56;17.30;81.30
913;DHT22;443;51.448;7.028;2022-10-16T00:56:23;17.20;81.30
913;DHT22;443;51.448;7.028;2022-10-16T00:58:50;17.20;81.40
913;DHT22;443;51.448;7.028;2022-10-16T01:01:17;17.20;81.30
913;DHT22;443;51.448;7.028;2022-10-16T01:03:44;17.20;81.30
913;DHT22;443;51.448;7.028;2022-10-16T01:06:23;17.20;81.30
913;DHT22;443;51.448;7.028;2022-10-16T01:09:00;17.20;81.40
913;DHT22;443;51.448;7.028;2022-10-16T01:11:33;17.20;81.40
913;DHT22;443;51.448;7.028;2022-10-16T01:14:07;17.20;81.20
913;DHT22;443;51.448;7.028;2022-10-16T01:16:42;17.20;81.40
913;DHT22;443;51.448;7.028;2022-10-16T01:19:16;17.20;81.30
913;DHT22;443;51.448;7.028;2022-10-16T01:21:47;17.20;81.30
913;DHT22;443;51.448;7.028;2022-10-16T01:24:22;17.20;81.30
913;DHT22;443;51.448;7.028;2022-10-16T01:27:06;17.20;81.20
913;DHT22;443;51.448;7.028;2022-10-16T01:29:36;17.20;81.30
913;DHT22;443;51.448;7.028;2022-10-16T01:32:10;17.20;81.10
913;DHT22;443;51.448;7.028;2022-10-16T01:34:47;17.20;81.30
913;DHT22;443;51.448;7.028;2022-10-16T01:37:18;17.20;81.10
913;DHT22;443;51.448;7.028;2022-10-16T01:39:47;17.20;81.30
913;DHT22;443;51.448;7.028;2022-10-16T01:42:20;17.20;81.90
913;DHT22;443;51.448;7.028;2022-10-16T01:44:49;17.20;81.20
913;DHT22;443;51.448;7.028;2022-10-16T01:47:18;17.20;81.20
913;DHT22;443;51.448;7.028;2022-10-16T01:49:46;17.20;81.10
913;DHT22;443;51.448;7.028;2022-10-16T01:52:16;17.20;81.20
913;DHT22;443;51.448;7.028;2022-10-16T01:54:47;17.10;81.40
913;DHT22;443;51.448;7.028;2022-10-16T01:57:17;17.10;81.50
913;DHT22;443;51.448;7.028;2022-10-16T01:59:48;17.10;81.40
913;DHT22;443;51.448;7.028;2022-10-16T02:02:18;17.20;81.60
913;DHT22;443;51.448;7.028;2022-10-16T02:04:49;17.20;81.40
913;DHT22;443;51.448;7.028;2022-10-16T02:07:18;17.20;81.30
913;DHT22;443;51.448;7.028;2022-10-16T02:09:45;17.20;81.30
913;DHT22;443;51.448;7.028;2022-10-16T02:12:17;17.10;81.30
913;DHT22;443;51.448;7.028;2022-10-16T02:14:48;17.20;81.50
913;DHT22;443;51.448;7.028;2022-10-16T02:17:18;17.10;81.00
913;DHT22;443;51.448;7.028;2022-10-16T02:19:46;17.10;81.40
913;DHT22;443;51.448;7.028;2022-10-16T02:22:17;17.10;81.60
913;DHT22;443;51.448;7.028;2022-10-16T02:24:51;17.10;81.40
913;DHT22;443;51.448;7.028;2022-10-16T02:27:24;17.10;81.60
913;DHT22;443;51.448;7.028;2022-10-16T02:29:57;17.10;81.20
913;DHT22;443;51.448;7.028;2022-10-16T02:32:30;17.10;81.60
913;DHT22;443;51.448;7.028;2022-10-16T02:34:59;17.10;81.50
913;DHT22;443;51.448;7.028;2022-10-16T02:37:27;17.10;81.50
913;DHT22;443;51.448;7.028;2022-10-16T02:39:55;17.10;81.20
913;DHT22;443;51.448;7.028;2022-10-16T02:42:28;17.10;81.60
913;DHT22;443;51.448;7.028;2022-10-16T02:44:56;17.10;81.30
913;DHT22;443;51.448;7.028;2022-10-16T02:47:23;17.00;81.50
913;DHT22;443;51.448;7.028;2022-10-16T02:49:49;17.00;81.50
913;DHT22;443;51.448;7.028;2022-10-16T02:52:16;17.10;81.80
913;DHT22;443;51.448;7.028;2022-10-16T02:54:43;17.10;81.30
913;DHT22;443;51.448;7.028;2022-10-16T02:57:10;17.10;81.50
913;DHT22;443;51.448;7.028;2022-10-16T02:59:37;17.10;81.40
913;DHT22;443;51.448;7.028;2022-10-16T03:02:05;17.10;81.10
913;DHT22;443;51.448;7.028;2022-10-16T03:04:32;17.10;81.50
913;DHT22;443;51.448;7.028;2022-10-16T03:06:59;17.10;81.30
913;DHT22;443;51.448;7.028;2022-10-16T03:09:26;17.10;81.50
913;DHT22;443;51.448;7.028;2022-10-16T03:11:53;17.10;81.30
913;DHT22;443;51.448;7.028;2022-10-16T03:14:20;17.10;81.10
913;DHT22;443;51.448;7.028;2022-10-16T03:16:47;17.00;81.00
913;DHT22;443;51.448;7.028;2022-10-16T03:19:16;17.00;80.80
913;DHT22;443;51.448;7.028;2022-10-16T03:21:43;17.00;81.50
913;DHT22;443;51.448;7.028;2022-10-16T03:24:09;17.00;81.00
913;DHT22;443;51.448;7.028;2022-10-16T03:26:36;17.00;81.50
913;DHT22;443;51.448;7.028;2022-10-16T03:29:03;17.10;81.50
913;DHT22;443;51.448;7.028;2022-10-16T03:31:30;17.10;81.60
913;DHT22;443;51.448;7.028;2022-10-16T03:33:57;17.00;80.90
913;DHT22;443;51.448;7.028;2022-10-16T03:36:25;17.10;81.60
913;DHT22;443;51.448;7.028;2022-10-16T03:38:52;17.00;81.30
913;DHT22;443;51.448;7.028;2022-10-16T03:41:19;17.10;81.50
913;DHT22;443;51.448;7.028;2022-10-16T03:43:46;17.10;81.30
913;DHT22;443;51.448;7.028;2022-10-16T03:46:12;17.10;81.10
913;DHT22;443;51.448;7.028;2022-10-16T03:48:39;17.10;81.40
913;DHT22;443;51.448;7.028;2022-10-16T03:51:06;17.10;80.60
913;DHT22;443;51.448;7.028;2022-10-16T03:53:34;17.00;80.40
913;DHT22;443;51.448;7.028;2022-10-16T03:56:01;17.00;80.70
913;DHT22;443;51.448;7.028;2022-10-16T03:58:27;17.10;81.20
913;DHT22;443;51.448;7.028;2022-10-16T04:00:54;17.00;80.80
913;DHT22;443;51.448;7.028;2022-10-16T04:03:21;17.00;81.10
913;DHT22;443;51.448;7.028;2022-10-16T04:05:48;17.00;80.30
913;DHT22;443;51.448;7.028;2022-10-16T04:08:15;17.00;81.10
913;DHT22;443;51.448;7.028;2022-10-16T04:10:44;17.00;80.60
913;DHT22;443;51.448;7.028;2022-10-16T04:13:11;17.00;81.40
913;DHT22;443;51.448;7.028;2022-10-16T04:15:38;17.00;80.80
913;DHT22;443;51.448;7.028;2022-10-16T04:18:05;17.00;80.80
913;DHT22;443;51.448;7.028;2022-10-16T04:20:33;17.00;81.30
913;DHT22;443;51.448;7.028;2022-10-16T04:23:00;17.00;80.90
913;DHT22;443;51.448;7.028;2022-10-16T04:25:26;16.90;80.70
913;DHT22;443;51.448;7.028;2022-10-16T04:27:55;17.00;81.10
913;DHT22;443;51.448;7.028;2022-10-16T04:30:22;17.00;81.40
913;DHT22;443;51.448;7.028;2022-10-16T04:32:49;17.00;81.10
913;DHT22;443;51.448;7.028;2022-10-16T04:35:16;17.00;81.10
913;DHT22;443;51.448;7.028;2022-10-16T04:37:43;16.90;81.20
913;DHT22;443;51.448;7.028;2022-10-16T04:40:10;16.90;80.60
913;DHT22;443;51.448;7.028;2022-10-16T04:42:37;17.00;81.30
913;DHT22;443;51.448;7.028;2022-10-16T04:45:06;17.00;80.90
913;DHT22;443;51.448;7.028;2022-10-16T04:47:33;16.90;80.70
913;DHT22;443;51.448;7.028;2022-10-16T04:50:00;16.90;81.20
913;DHT22;443;51.448;7.028;2022-10-16T04:52:27;16.90;81.00
913;DHT22;443;51.448;7.028;2022-10-16T04:54:54;16.90;81.00
913;DHT22;443;51.448;7.028;2022-10-16T04:57:25;16.90;81.50
913;DHT22;443;51.448;7.028;2022-10-16T04:59:52;16.90;81.60
913;DHT22;443;51.448;7.028;2022-10-16T05:02:21;17.00;81.00
913;DHT22;443;51.448;7.028;2022-10-16T05:04:47;16.90;81.30
913;DHT22;443;51.448;7.028;2022-10-16T05:07:14;16.90;80.70
913;DHT22;443;51.448;7.028;2022-10-16T05:09:41;16.90;81.40
913;DHT22;443;51.448;7.028;2022-10-16T05:12:08;17.00;81.70
913;DHT22;443;51.448;7.028;2022-10-16T05:14:34;16.90;80.90
913;DHT22;443;51.448;7.028;2022-10-16T05:17:01;16.90;81.80
913;DHT22;443;51.448;7.028;2022-10-16T05:19:29;16.90;81.90
913;DHT22;443;51.448;7.028;2022-10-16T05:21:56;17.00;81.80
913;DHT22;443;51.448;7.028;2022-10-16T05:24:23;17.00;81.70
913;DHT22;443;51.448;7.028;2022-10-16T05:26:50;16.90;81.30
913;DHT22;443;51.448;7.028;2022-10-16T05:29:17;17.00;81.40
913;DHT22;443;51.448;7.028;2022-10-16T05:31:43;17.00;81.10
913;DHT22;443;51.448;7.028;2022-10-16T05:34:10;16.90;81.40
913;DHT22;443;51.448;7.028;2022-10-16T05:36:38;17.00;81.40
913;DHT22;443;51.448;7.028;2022-10-16T05:39:05;17.00;81.70
913;DHT22;443;51.448;7.028;2022-10-16T05:41:32;16.90;81.30
913;DHT22;443;51.448;7.028;2022-10-16T05:43:59;16.90;81.60
913;DHT22;443;51.448;7.028;2022-10-16T05:46:25;16.90;81.50
913;DHT22;443;51.448;7.028;2022-10-16T05:48:52;16.90;82.10
913;DHT22;443;51.448;7.028;2022-10-16T05:51:19;17.00;82.00
913;DHT22;443;51.448;7.028;2022-10-16T05:53:47;16.90;81.00
913;DHT22;443;51.448;7.028;2022-10-16T05:56:14;16.90;81.40
913;DHT22;443;51.448;7.028;2022-10-16T05:58:41;17.00;81.60
913;DHT22;443;51.448;7.028;2022-10-16T06:01:12;17.00;81.40
913;DHT22;443;51.448;7.028;2022-10-16T06:03:39;17.00;81.30
913;DHT22;443;51.448;7.028;2022-10-16T06:06:10;17.00;81.40
913;DHT22;443;51.448;7.028;2022-10-16T06:08:37;17.00;81.70
913;DHT22;443;51.448;7.028;2022-10-16T06:11:07;17.00;82.10
913;DHT22;443;51.448;7.028;2022-10-16T06:13:34;17.00;81.40
913;DHT22;443;51.448;7.028;2022-10-16T06:16:01;17.00;81.30
913;DHT22;443;51.448;7.028;2022-10-16T06:18:30;17.00;81.50
913;DHT22;443;51.448;7.028;2022-10-16T06:20:56;17.00;81.50
913;DHT22;443;51.448;7.028;2022-10-16T06:23:24;17.00;81.40
913;DHT22;443;51.448;7.028;2022-10-16T06:25:51;17.00;81.50
913;DHT22;443;51.448;7.028;2022-10-16T06:28:19;17.00;81.80
913;DHT22;443;51.448;7.028;2022-10-16T06:30:45;17.00;81.00
913;DHT22;443;51.448;7.028;2022-10-16T06:33:13;17.00;81.70
913;DHT22;443;51.448;7.028;2022-10-16T06:35:39;17.00;81.00
913;DHT22;443;51.448;7.028;2022-10-16T06:38:06;17.00;81.40
913;DHT22;443;51.448;7.028;2022-10-16T06:40:33;17.00;81.90
913;DHT22;443;51.448;7.028;2022-10-16T06:43:00;17.00;82.00
913;DHT22;443;51.448;7.028;2022-10-16T06:45:28;17.00;81.70
913;DHT22;443;51.448;7.028;2022-10-16T06:47:54;17.00;81.20
913;DHT22;443;51.448;7.028;2022-10-16T06:50:21;17.00;81.50
913;DHT22;443;51.448;7.028;2022-10-16T06:52:49;17.00;81.40
913;DHT22;443;51.448;7.028;2022-10-16T06:55:16;17.00;81.90
913;DHT22;443;51.448;7.028;2022-10-16T06:57:43;17.00;81.80
913;DHT22;443;51.448;7.028;2022-10-16T07:00:13;17.00;81.90
913;DHT22;443;51.448;7.028;2022-10-16T07:02:41;17.10;82.10
913;DHT22;443;51.448;7.028;2022-10-16T07:05:08;17.00;81.40
913;DHT22;443;51.448;7.028;2022-10-16T07:07:35;17.00;81.70
913;DHT22;443;51.448;7.028;2022-10-16T07:10:02;17.00;81.70
913;DHT22;443;51.448;7.028;2022-10-16T07:12:29;17.00;81.80
913;DHT22;443;51.448;7.028;2022-10-16T07:14:56;17.10;81.90
913;DHT22;443;51.448;7.028;2022-10-16T07:17:23;17.10;82.30
913;DHT22;443;51.448;7.028;2022-10-16T07:19:51;17.10;81.20
913;DHT22;443;51.448;7.028;2022-10-16T07:22:18;17.10;81.70
913;DHT22;443;51.448;7.028;2022-10-16T07:24:45;17.10;81.60
913;DHT22;443;51.448;7.028;2022-10-16T07:27:12;17.00;81.60
913;DHT22;443;51.448;7.028;2022-10-16T07:29:39;16.90;81.90
913;DHT22;443;51.448;7.028;2022-10-16T07:32:06;17.00;81.60
913;DHT22;443;51.448;7.028;2022-10-16T07:34:33;17.00;81.70
913;DHT22;443;51.448;7.028;2022-10-16T07:37:01;17.00;82.00
913;DHT22;443;51.448;7.028;2022-10-16T07:39:27;17.00;81.80
913;DHT22;443;51.448;7.028;2022-10-16T07:41:54;17.00;81.60
913;DHT22;443;51.448;7.028;2022-10-16T07:44:21;17.00;81.80
913;DHT22;443;51.448;7.028;2022-10-16T07:46:48;17.00;81.40
913;DHT22;443;51.448;7.028;2022-10-16T07:49:15;17.10;82.00
913;DHT22;443;51.448;7.028;2022-10-16T07:51:41;17.10;81.90
913;DHT22;443;51.448;7.028;2022-10-16T07:54:10;17.10;81.90
913;DHT22;443;51.448;7.028;2022-10-16T07:56:36;17.00;81.50
913;DHT22;443;51.448;7.028;2022-10-16T07:59:03;17.10;81.90
913;DHT22;443;51.448;7.028;2022-10-16T08:01:30;17.20;81.70
913;DHT22;443;51.448;7.028;2022-10-16T08:03:57;17.20;81.50
913;DHT22;443;51.448;7.028;2022-10-16T08:06:24;17.20;81.20
913;DHT22;443;51.448;7.028;2022-10-16T08:08:50;17.10;81.70
913;DHT22;443;51.448;7.028;2022-10-16T08:11:19;17.10;81.10
913;DHT22;443;51.448;7.028;2022-10-16T08:13:45;17.10;81.20
913;DHT22;443;51.448;7.028;2022-10-16T08:16:12;17.10;81.50
913;DHT22;443;51.448;7.028;2022-10-16T08:18:41;17.10;81.40
913;DHT22;443;51.448;7.028;2022-10-16T08:21:13;17.20;81.60
913;DHT22;443;51.448;7.028;2022-10-16T08:23:40;17.20;81.10
913;DHT22;443;51.448;7.028;2022-10-16T08:26:07;17.20;81.60
913;DHT22;443;51.448;7.028;2022-10-16T08:28:36;17.20;81.30
913;DHT22;443;51.448;7.028;2022-10-16T08:31:08;17.20;80.90
913;DHT22;443;51.448;7.028;2022-10-16T08:33:36;17.30;81.10
913;DHT22;443;51.448;7.028;2022-10-16T08:36:04;17.30;80.50
913;DHT22;443;51.448;7.028;2022-10-16T08:38:31;17.30;80.70
913;DHT22;443;51.448;7.028;2022-10-16T08:41:13;17.30;81.00
913;DHT22;443;51.448;7.028;2022-10-16T08:43:58;17.30;80.50
913;DHT22;443;51.448;7.028;2022-10-16T08:46:36;17.30;80.50
913;DHT22;443;51.448;7.028;2022-10-16T08:49:10;17.30;80.20
913;DHT22;443;51.448;7.028;2022-10-16T08:51:38;17.40;80.60
913;DHT22;443;51.448;7.028;2022-10-16T08:54:08;17.30;80.10
913;DHT22;443;51.448;7.028;2022-10-16T08:56:38;17.40;80.90
913;DHT22;443;51.448;7.028;2022-10-16T08:59:10;17.40;79.60
913;DHT22;443;51.448;7.028;2022-10-16T09:01:40;17.40;79.80
913;DHT22;443;51.448;7.028;2022-10-16T09:07:14;17.30;80.00
913;DHT22;443;51.448;7.028;2022-10-16T09:09:54;17.40;80.80
913;DHT22;443;51.448;7.028;2022-10-16T09:12:27;17.40;80.00
913;DHT22;443;51.448;7.028;2022-10-16T09:15:05;17.40;79.80
913;DHT22;443;51.448;7.028;2022-10-16T09:17:41;17.40;79.70
913;DHT22;443;51.448;7.028;2022-10-16T09:20:19;17.40;80.10
913;DHT22;443;51.448;7.028;2022-10-16T09:22:51;17.50;79.80
913;DHT22;443;51.448;7.028;2022-10-16T09:25:20;17.50;80.00
913;DHT22;443;51.448;7.028;2022-10-16T09:27:48;17.40;79.20
913;DHT22;443;51.448;7.028;2022-10-16T09:30:21;17.50;79.70
913;DHT22;443;51.448;7.028;2022-10-16T09:32:50;17.50;79.70
913;DHT22;443;51.448;7.028;2022-10-16T09:35:20;17.60;80.00
913;DHT22;443;51.448;7.028;2022-10-16T09:37:50;17.50;79.80
913;DHT22;443;51.448;7.028;2022-10-16T09:40:25;17.50;79.00
913;DHT22;443;51.448;7.028;2022-10-16T09:42:57;17.50;78.90
913;DHT22;443;51.448;7.028;2022-10-16T09:45:25;17.60;79.30
913;DHT22;443;51.448;7.028;2022-10-16T09:47:52;17.50;79.20
913;DHT22;443;51.448;7.028;2022-10-16T09:50:22;17.60;79.60
913;DHT22;443;51.448;7.028;2022-10-16T09:52:50;17.60;79.70
913;DHT22;443;51.448;7.028;2022-10-16T09:55:18;17.60;79.30
913;DHT22;443;51.448;7.028;2022-10-16T09:57:49;17.60;78.80
913;DHT22;443;51.448;7.028;2022-10-16T10:00:17;17.60;79.50
913;DHT22;443;51.448;7.028;2022-10-16T10:02:46;17.70;79.50
913;DHT22;443;51.448;7.028;2022-10-16T10:05:21;17.70;78.50
913;DHT22;443;51.448;7.028;2022-10-16T10:07:55;17.60;79.40
913;DHT22;443;51.448;7.028;2022-10-16T10:10:24;17.70;79.10
913;DHT22;443;51.448;7.028;2022-10-16T10:12:51;17.70;79.70
913;DHT22;443;51.448;7.028;2022-10-16T10:15:18;17.70;79.40
913;DHT22;443;51.448;7.028;2022-10-16T10:17:50;17.70;79.10
913;DHT22;443;51.448;7.028;2022-10-16T10:20:26;17.70;78.60
913;DHT22;443;51.448;7.028;2022-10-16T10:22:53;17.70;79.10
913;DHT22;443;51.448;7.028;2022-10-16T10:25:49;17.70;79.00
913;DHT22;443;51.448;7.028;2022-10-16T10:28:46;17.80;79.20
913;DHT22;443;51.448;7.028;2022-10-16T10:31:20;17.80;79.40
913;DHT22;443;51.448;7.028;2022-10-16T10:33:55;17.80;79.10
913;DHT22;443;51.448;7.028;2022-10-16T10:36:29;17.80;78.80
913;DHT22;443;51.448;7.028;2022-10-16T10:38:59;17.80;78.50
913;DHT22;443;51.448;7.028;2022-10-16T10:41:39;17.80;78.60
913;DHT22;443;51.448;7.028;2022-10-16T10:44:18;17.80;78.90
913;DHT22;443;51.448;7.028;2022-10-16T10:46:50;17.80;78.70
913;DHT22;443;51.448;7.028;2022-10-16T10:49:35;17.80;78.50
913;DHT22;443;51.448;7.028;2022-10-16T10:52:16;17.80;78.10
913;DHT22;443;51.448;7.028;2022-10-16T10:54:54;17.80;78.00
913;DHT22;443;51.448;7.028;2022-10-16T10:57:30;17.80;78.50
913;DHT22;443;51.448;7.028;2022-10-16T11:00:09;17.80;77.90
913;DHT22;443;51.448;7.028;2022-10-16T11:02:42;17.80;77.90
913;DHT22;443;51.448;7.028;2022-10-16T11:05:35;17.80;78.10
913;DHT22;443;51.448;7.028;2022-10-16T11:08:10;17.80;77.90
913;DHT22;443;51.448;7.028;2022-10-16T11:10:46;17.80;78.90
913;DHT22;443;51.448;7.028;2022-10-16T11:13:28;17.80;78.70
913;DHT22;443;51.448;7.028;2022-10-16T11:15:59;17.80;78.00
913;DHT22;443;51.448;7.028;2022-10-16T11:18:44;17.80;77.90
913;DHT22;443;51.448;7.028;2022-10-16T11:21:16;17.80;77.60
913;DHT22;443;51.448;7.028;2022-10-16T11:23:51;17.90;78.30
913;DHT22;443;51.448;7.028;2022-10-16T11:26:20;17.80;78.40
913;DHT22;443;51.448;7.028;2022-10-16T11:28:49;17.80;78.40
913;DHT22;443;51.448;7.028;2022-10-16T11:31:22;17.80;78.60
913;DHT22;443;51.448;7.028;2022-10-16T11:33:57;17.80;78.70
913;DHT22;443;51.448;7.028;2022-10-16T11:36:33;17.90;77.60
913;DHT22;443;51.448;7.028;2022-10-16T11:39:07;17.90;77.80
913;DHT22;443;51.448;7.028;2022-10-16T11:41:44;17.90;78.10
913;DHT22;443;51.448;7.028;2022-10-16T11:44:21;17.90;78.60
913;DHT22;443;51.448;7.028;2022-10-16T11:46:58;18.00;78.50
913;DHT22;443;51.448;7.028;2022-10-16T11:49:31;18.00;77.80
913;DHT22;443;51.448;7.028;2022-10-16T11:52:05;18.00;77.80
913;DHT22;443;51.448;7.028;2022-10-16T11:54:39;18.00;77.50
913;DHT22;443;51.448;7.028;2022-10-16T11:57:12;18.10;77.20
913;DHT22;443;51.448;7.028;2022-10-16T11:59:43;18.00;78.30
913;DHT22;443;51.448;7.028;2022-10-16T12:02:44;18.00;78.10
913;DHT22;443;51.448;7.028;2022-10-16T12:05:22;18.00;78.20
913;DHT22;443;51.448;7.028;2022-10-16T12:08:01;18.00;77.20
913;DHT22;443;51.448;7.028;2022-10-16T12:10:30;18.00;77.50
913;DHT22;443;51.448;7.028;2022-10-16T12:13:03;18.10;77.00
913;DHT22;443;51.448;7.028;2022-10-16T12:15:31;18.20;76.60
913;DHT22;443;51.448;7.028;2022-10-16T12:17:59;18.20;76.90
913;DHT22;443;51.448;7.028;2022-10-16T12:20:28;18.20;77.00
913;DHT22;443;51.448;7.028;2022-10-16T12:23:02;18.20;76.90
913;DHT22;443;51.448;7.028;2022-10-16T12:25:31;18.20;77.90
913;DHT22;443;51.448;7.028;2022-10-16T12:28:00;18.20;77.90
913;DHT22;443;51.448;7.028;2022-10-16T12:30:29;18.10;77.40
913;DHT22;443;51.448;7.028;2022-10-16T12:32:57;18.10;78.00
913;DHT22;443;51.448;7.028;2022-10-16T12:35:27;18.10;77.40
913;DHT22;443;51.448;7.028;2022-10-16T12:38:14;18.10;78.00
913;DHT22;443;51.448;7.028;2022-10-16T12:40:43;18.10;77.70
913;DHT22;443;51.448;7.028;2022-10-16T12:43:26;18.10;77.40
913;DHT22;443;51.448;7.028;2022-10-16T12:46:00;18.20;77.50
913;DHT22;443;51.448;7.028;2022-10-16T12:48:27;18.10;77.70
913;DHT22;443;51.448;7.028;2022-10-16T12:50:55;18.20;77.20
913;DHT22;443;51.448;7.028;2022-10-16T12:53:25;18.30;77.20
913;DHT22;443;51.448;7.028;2022-10-16T12:56:02;18.20;77.60
913;DHT22;443;51.448;7.028;2022-10-16T12:58:42;18.20;77.50
913;DHT22;443;51.448;7.028;2022-10-16T13:01:32;18.20;76.90
913;DHT22;443;51.448;7.028;2022-10-16T13:04:23;18.30;76.80
913;DHT22;443;51.448;7.028;2022-10-16T13:07:00;18.20;77.00
913;DHT22;443;51.448;7.028;2022-10-16T13:09:52;18.20;77.20
913;DHT22;443;51.448;7.028;2022-10-16T13:12:47;18.20;77.60
913;DHT22;443;51.448;7.028;2022-10-16T13:15:37;18.20;78.20
913;DHT22;443;51.448;7.028;2022-10-16T13:18:13;18.10;77.90
913;DHT22;443;51.448;7.028;2022-10-16T13:20:56;18.10;77.70
913;DHT22;443;51.448;7.028;2022-10-16T13:23:34;18.20;77.90
913;DHT22;443;51.448;7.028;2022-10-16T13:26:15;18.20;77.90
913;DHT22;443;51.448;7.028;2022-10-16T13:28:43;18.20;77.70
913;DHT22;443;51.448;7.028;2022-10-16T13:31:15;18.20;77.90
913;DHT22;443;51.448;7.028;2022-10-16T13:33:46;18.20;77.20
913;DHT22;443;51.448;7.028;2022-10-16T13:36:22;18.30;76.80
913;DHT22;443;51.448;7.028;2022-10-16T13:39:00;18.40;77.20
913;DHT22;443;51.448;7.028;2022-10-16T13:41:31;18.30;77.20
913;DHT22;443;51.448;7.028;2022-10-16T13:43:58;18.20;77.40
913;DHT22;443;51.448;7.028;2022-10-16T13:46:25;18.20;77.60
913;DHT22;443;51.448;7.028;2022-10-16T13:48:59;18.20;77.70
913;DHT22;443;51.448;7.028;2022-10-16T13:51:27;18.20;77.70
913;DHT22;443;51.448;7.028;2022-10-16T13:53:55;18.20;77.80
913;DHT22;443;51.448;7.028;2022-10-16T13:56:26;18.10;77.80
913;DHT22;443;51.448;7.028;2022-10-16T13:59:02;18.10;78.00
913;DHT22;443;51.448;7.028;2022-10-16T14:01:30;18.20;78.00
913;DHT22;443;51.448;7.028;2022-10-16T14:04:03;18.20;77.80
913;DHT22;443;51.448;7.028;2022-10-16T14:06:31;18.20;77.90
913;DHT22;443;51.448;7.028;2022-10-16T14:09:01;18.20;77.80
913;DHT22;443;51.448;7.028;2022-10-16T14:11:31;18.20;77.80
913;DHT22;443;51.448;7.028;2022-10-16T14:13:58;18.20;77.80
913;DHT22;443;51.448;7.028;2022-10-16T14:16:29;18.20;77.80
913;DHT22;443;51.448;7.028;2022-10-16T14:18:58;18.30;77.40
913;DHT22;443;51.448;7.028;2022-10-16T14:21:26;18.40;77.30
913;DHT22;443;51.448;7.028;2022-10-16T14:23:54;18.40;76.90
913;DHT22;443;51.448;7.028;2022-10-16T14:26:23;18.40;77.10
913;DHT22;443;51.448;7.028;2022-10-16T14:29:03;18.30;77.30
913;DHT22;443;51.448;7.028;2022-10-16T14:31:33;18.20;77.50
913;DHT22;443;51.448;7.028;2022-10-16T14:34:01;18.20;77.70
913;DHT22;443;51.448;7.028;2022-10-16T14:36:29;18.20;77.90
913;DHT22;443;51.448;7.028;2022-10-16T14:39:01;18.20;77.80
913;DHT22;443;51.448;7.028;2022-10-16T14:41:30;18.20;77.90
913;DHT22;443;51.448;7.028;2022-10-16T14:44:01;18.20;78.00
913;DHT22;443;51.448;7.028;2022-10-16T14:46:34;18.20;78.00
913;DHT22;443;51.448;7.028;2022-10-16T14:49:05;18.20;78.00
913;DHT22;443;51.448;7.028;2022-10-16T14:51:41;18.20;77.90
913;DHT22;443;51.448;7.028;2022-10-16T14:54:10;18.20;77.90
913;DHT22;443;51.448;7.028;2022-10-16T14:56:44;18.20;77.90
913;DHT22;443;51.448;7.028;2022-10-16T14:59:15;18.20;78.10
913;DHT22;443;51.448;7.028;2022-10-16T15:01:44;18.20;78.10
913;DHT22;443;51.448;7.028;2022-10-16T15:04:12;18.10;78.00
913;DHT22;443;51.448;7.028;2022-10-16T15:06:39;18.10;78.10
913;DHT22;443;51.448;7.028;2022-10-16T15:09:06;18.10;78.20
913;DHT22;443;51.448;7.028;2022-10-16T15:11:33;18.10;78.20
913;DHT22;443;51.448;7.028;2022-10-16T15:14:00;18.10;78.30
913;DHT22;443;51.448;7.028;2022-10-16T15:16:29;18.10;78.20
913;DHT22;443;51.448;7.028;2022-10-16T15:18:57;18.00;78.20
913;DHT22;443;51.448;7.028;2022-10-16T15:21:25;18.00;78.40
913;DHT22;443;51.448;7.028;2022-10-16T15:23:52;18.10;78.60
913;DHT22;443;51.448;7.028;2022-10-16T15:26:19;18.00;78.40
913;DHT22;443;51.448;7.028;2022-10-16T15:28:46;18.00;78.50
913;DHT22;443;51.448;7.028;2022-10-16T15:31:13;18.00;78.50
913;DHT22;443;51.448;7.028;2022-10-16T15:33:39;18.00;78.50
913;DHT22;443;51.448;7.028;2022-10-16T15:36:07;18.00;78.60
913;DHT22;443;51.448;7.028;2022-10-16T15:38:34;18.00;78.80
913;DHT22;443;51.448;7.028;2022-10-16T15:41:01;18.00;78.60
913;DHT22;443;51.448;7.028;2022-10-16T15:43:28;18.00;78.70
913;DHT22;443;51.448;7.028;2022-10-16T15:46:00;18.00;78.70
913;DHT22;443;51.448;7.028;2022-10-16T15:48:27;18.00;78.70
913;DHT22;443;51.448;7.028;2022-10-16T15:50:54;18.00;78.60
913;DHT22;443;51.448;7.028;2022-10-16T15:53:23;18.00;78.80
913;DHT22;443;51.448;7.028;2022-10-16T15:55:49;18.00;78.70
913;DHT22;443;51.448;7.028;2022-10-16T15:58:16;18.00;78.80
913;DHT22;443;51.448;7.028;2022-10-16T16:00:43;18.00;78.70
913;DHT22;443;51.448;7.028;2022-10-16T16:03:10;18.00;78.80
913;DHT22;443;51.448;7.028;2022-10-16T16:05:38;18.00;78.80
913;DHT22;443;51.448;7.028;2022-10-16T16:08:05;18.00;78.80
913;DHT22;443;51.448;7.028;2022-10-16T16:10:33;18.00;78.90
913;DHT22;443;51.448;7.028;2022-10-16T16:13:00;18.00;78.90
913;DHT22;443;51.448;7.028;2022-10-16T16:15:26;18.00;78.80
913;DHT22;443;51.448;7.028;2022-10-16T16:17:53;18.00;78.90
913;DHT22;443;51.448;7.028;2022-10-16T16:20:20;18.00;78.90
913;DHT22;443;51.448;7.028;2022-10-16T16:22:47;18.00;79.00
913;DHT22;443;51.448;7.028;2022-10-16T16:25:14;17.90;78.80
913;DHT22;443;51.448;7.028;2022-10-16T16:27:42;18.00;78.90
913;DHT22;443;51.448;7.028;2022-10-16T16:30:11;17.90;78.90
913;DHT22;443;51.448;7.028;2022-10-16T16:32:38;17.90;78.90
913;DHT22;443;51.448;7.028;2022-10-16T16:35:05;17.90;79.00
913;DHT22;443;51.448;7.028;2022-10-16T16:37:32;17.90;79.00
913;DHT22;443;51.448;7.028;2022-10-16T16:40:00;18.00;79.10
913;DHT22;443;51.448;7.028;2022-10-16T16:42:27;17.90;79.00
913;DHT22;443;51.448;7.028;2022-10-16T16:44:56;17.90;79.10
913;DHT22;443;51.448;7.028;2022-10-16T16:47:22;17.90;79.10
913;DHT22;443;51.448;7.028;2022-10-16T16:49:49;17.90;79.10
913;DHT22;443;51.448;7.028;2022-10-16T16:52:17;17.90;79.10
913;DHT22;443;51.448;7.028;2022-10-16T16:54:44;17.90;79.10
913;DHT22;443;51.448;7.028;2022-10-16T16:57:17;17.90;79.10